createdAt,value
2019-04-11T00:00:33.355Z,6.70
2019-04-11T00:01:39.421Z,6.70
2019-04-11T00:02:34.350Z,6.64
2019-04-11T00:03:33.530Z,6.69
2019-04-11T00:04:34.386Z,6.66
2019-04-11T00:05:33.311Z,6.58
2019-04-11T00:06:33.815Z,6.71
2019-04-11T00:07:33.286Z,6.69
2019-04-11T00:08:34.182Z,6.71
2019-04-11T00:09:34.437Z,6.67
2019-04-11T00:10:33.414Z,6.66
2019-04-11T00:11:33.597Z,6.61
2019-04-11T00:12:33.221Z,6.71
2019-04-11T00:13:35.222Z,6.54
2019-04-11T00:14:33.193Z,6.56
2019-04-11T00:15:33.187Z,6.54
2019-04-11T00:16:33.208Z,6.52
2019-04-11T00:17:34.186Z,6.46
2019-04-11T00:18:33.177Z,6.56
2019-04-11T00:19:33.639Z,6.52
2019-04-11T00:20:33.865Z,6.52
2019-04-11T00:21:33.115Z,6.59
2019-04-11T00:22:33.343Z,6.55
2019-04-11T00:23:34.141Z,6.52
2019-04-11T00:24:33.082Z,6.56
2019-04-11T00:25:33.763Z,6.59
2019-04-11T00:26:33.061Z,6.54
2019-04-11T00:27:33.054Z,6.54
2019-04-11T00:28:34.028Z,6.46
2019-04-11T00:29:33.029Z,6.52
2019-04-11T00:30:33.017Z,6.41
2019-04-11T00:31:33.014Z,6.48
2019-04-11T00:32:33.765Z,6.44
2019-04-11T00:33:33.980Z,6.40
2019-04-11T00:34:33.171Z,6.40
2019-04-11T00:35:33.595Z,6.36
2019-04-11T00:36:32.954Z,6.40
2019-04-11T00:37:32.948Z,6.41
2019-04-11T00:38:34.115Z,6.38
2019-04-11T00:39:32.918Z,6.41
2019-04-11T00:40:33.271Z,6.40
2019-04-11T00:41:32.897Z,6.33
2019-04-11T00:42:32.884Z,6.37
2019-04-11T00:43:37.640Z,6.37
2019-04-11T00:44:34.743Z,6.36
2019-04-11T00:45:33.807Z,6.27
2019-04-11T00:46:32.843Z,6.25
2019-04-11T00:47:33.164Z,6.37
2019-04-11T00:48:33.496Z,6.33
2019-04-11T00:49:32.801Z,6.17
2019-04-11T00:50:32.811Z,6.25
2019-04-11T00:51:33.856Z,6.25
2019-04-11T00:52:33.637Z,6.15
2019-04-11T00:53:32.782Z,6.15
2019-04-11T00:54:33.171Z,6.18
2019-04-11T00:55:32.732Z,6.17
2019-04-11T00:56:32.729Z,6.11
2019-04-11T00:57:32.800Z,6.11
2019-04-11T00:58:33.858Z,6.04
2019-04-11T00:59:32.713Z,6.08
2019-04-11T01:00:33.352Z,6.09
2019-04-11T01:01:33.680Z,6.08
2019-04-11T01:02:33.653Z,6.04
2019-04-11T01:03:33.823Z,6.08
2019-04-11T01:04:32.786Z,6.08
2019-04-11T01:05:33.815Z,6.03
2019-04-11T01:06:32.609Z,6.04
2019-04-11T01:07:33.193Z,6.03
2019-04-11T01:08:32.588Z,6.08
2019-04-11T01:09:32.727Z,6.08
2019-04-11T01:10:32.571Z,6.03
2019-04-11T01:11:32.560Z,5.97
2019-04-11T01:12:32.547Z,6.04
2019-04-11T01:13:41.719Z,5.99
2019-04-11T01:14:34.167Z,5.96
2019-04-11T01:15:32.510Z,5.90
2019-04-11T01:16:32.649Z,5.93
2019-04-11T01:17:33.589Z,5.94
2019-04-11T01:18:32.479Z,5.94
2019-04-11T01:19:33.004Z,5.94
2019-04-11T01:20:32.496Z,5.96
2019-04-11T01:21:32.799Z,5.85
2019-04-11T01:22:32.432Z,5.93
2019-04-11T01:23:33.229Z,5.90
2019-04-11T01:24:33.583Z,5.91
2019-04-11T01:25:32.670Z,5.91
2019-04-11T01:26:32.989Z,5.96
2019-04-11T01:27:32.376Z,5.83
2019-04-11T01:28:32.364Z,5.81
2019-04-11T01:29:33.483Z,5.83
2019-04-11T01:30:33.300Z,5.85
2019-04-11T01:31:32.330Z,5.83
2019-04-11T01:32:32.588Z,5.83
2019-04-11T01:33:32.307Z,5.78
2019-04-11T01:34:32.920Z,5.83
2019-04-11T01:35:33.213Z,5.85
2019-04-11T01:36:33.218Z,5.83
2019-04-11T01:37:33.450Z,5.81
2019-04-11T01:38:32.499Z,5.76
2019-04-11T01:39:32.779Z,5.75
2019-04-11T01:40:32.252Z,5.72
2019-04-11T01:41:32.217Z,5.74
2019-04-11T01:42:33.353Z,5.74
2019-04-11T01:43:32.492Z,5.75
2019-04-11T01:44:32.495Z,5.78
2019-04-11T01:45:32.210Z,5.71
2019-04-11T01:46:32.161Z,5.72
2019-04-11T01:47:32.972Z,5.61
2019-04-11T01:48:33.285Z,5.63
2019-04-11T01:49:32.349Z,5.63
2019-04-11T01:50:32.807Z,5.61
2019-04-11T01:51:32.123Z,5.64
2019-04-11T01:52:32.096Z,5.67
2019-04-11T01:53:33.094Z,5.68
2019-04-11T01:54:32.198Z,5.68
2019-04-11T01:55:32.574Z,5.67
2019-04-11T01:56:32.068Z,5.67
2019-04-11T01:57:32.047Z,5.65
2019-04-11T01:58:32.989Z,5.61
2019-04-11T01:59:32.290Z,5.54
2019-04-11T02:00:32.302Z,5.51
2019-04-11T02:01:32.703Z,5.58
2019-04-11T02:02:32.661Z,5.54
2019-04-11T02:03:32.993Z,5.57
2019-04-11T02:04:32.121Z,5.57
2019-04-11T02:05:32.823Z,5.56
2019-04-11T02:06:32.063Z,5.49
2019-04-11T02:07:31.929Z,5.48
2019-04-11T02:08:31.920Z,5.46
2019-04-11T02:09:32.430Z,5.42
2019-04-11T02:10:32.820Z,5.40
2019-04-11T02:11:31.921Z,5.40
2019-04-11T02:12:32.024Z,5.36
2019-04-11T02:13:32.182Z,5.40
2019-04-11T02:14:31.879Z,5.40
2019-04-11T02:15:32.427Z,5.39
2019-04-11T02:16:32.750Z,5.36
2019-04-11T02:17:32.853Z,5.46
2019-04-11T02:18:31.812Z,5.38
2019-04-11T02:19:32.190Z,5.40
2019-04-11T02:20:31.817Z,5.38
2019-04-11T02:21:31.794Z,5.35
2019-04-11T02:22:32.747Z,5.38
2019-04-11T02:23:32.013Z,5.35
2019-04-11T02:24:32.095Z,5.33
2019-04-11T02:25:32.333Z,5.31
2019-04-11T02:26:31.729Z,5.33
2019-04-11T02:27:32.699Z,5.35
2019-04-11T02:28:32.788Z,5.30
2019-04-11T02:29:31.700Z,5.28
2019-04-11T02:30:31.679Z,5.25
2019-04-11T02:31:32.656Z,5.36
2019-04-11T02:32:32.008Z,5.31
2019-04-11T02:33:32.917Z,5.33
2019-04-11T02:34:31.692Z,5.28
2019-04-11T02:35:31.730Z,5.20
2019-04-11T02:36:33.699Z,5.15
2019-04-11T02:37:33.725Z,5.13
2019-04-11T02:38:32.693Z,5.18
2019-04-11T02:39:34.813Z,5.21
2019-04-11T02:40:32.708Z,5.13
2019-04-11T02:41:33.492Z,5.09
2019-04-11T02:42:32.888Z,5.13
2019-04-11T02:43:32.020Z,5.10
2019-04-11T02:44:49.261Z,5.10
2019-04-11T02:45:45.208Z,5.15
2019-04-11T02:46:42.448Z,5.15
2019-04-11T02:47:34.997Z,5.00
2019-04-11T02:48:33.036Z,5.00
2019-04-11T02:49:32.926Z,4.99
2019-04-11T02:50:32.174Z,5.04
2019-04-11T02:51:31.484Z,5.03
2019-04-11T02:52:31.448Z,5.09
2019-04-11T02:53:32.674Z,5.09
2019-04-11T02:54:33.461Z,5.06
2019-04-11T02:55:31.713Z,5.03
2019-04-11T02:56:33.433Z,5.07
2019-04-11T02:57:32.291Z,5.03
2019-04-11T02:58:31.886Z,5.02
2019-04-11T02:59:31.401Z,4.99
2019-04-11T03:00:33.094Z,5.02
2019-04-11T03:01:31.959Z,4.99
2019-04-11T03:02:32.638Z,4.89
2019-04-11T03:03:32.007Z,4.89
2019-04-11T03:04:31.764Z,4.97
2019-04-11T03:05:34.448Z,4.89
2019-04-11T03:06:31.283Z,4.92
2019-04-11T03:07:32.016Z,4.84
2019-04-11T03:08:34.212Z,4.88
2019-04-11T03:09:31.744Z,4.86
2019-04-11T03:10:31.886Z,4.86
2019-04-11T03:11:32.516Z,4.85
2019-04-11T03:12:31.950Z,4.73
2019-04-11T03:13:33.176Z,4.85
2019-04-11T03:14:46.152Z,4.85
2019-04-11T03:15:48.895Z,4.75
2019-04-11T03:16:42.964Z,4.77
2019-04-11T03:17:36.774Z,4.80
2019-04-11T03:18:52.943Z,4.77
2019-04-11T03:19:43.990Z,4.78
2019-04-11T03:20:39.261Z,4.80
2019-04-11T03:21:36.687Z,4.75
2019-04-11T03:22:32.364Z,4.73
2019-04-11T03:23:31.299Z,4.77
2019-04-11T03:24:33.276Z,4.70
2019-04-11T03:25:32.542Z,4.70
2019-04-11T03:26:31.225Z,4.62
2019-04-11T03:27:32.549Z,4.70
2019-04-11T03:28:32.004Z,4.65
2019-04-11T03:29:33.157Z,4.58
2019-04-11T03:30:51.994Z,4.60
2019-04-11T03:32:13.236Z,4.63
2019-04-11T03:33:18.136Z,4.55
2019-04-11T03:35:20.911Z,4.62
2019-04-11T03:36:28.621Z,4.58
2019-04-11T03:37:53.556Z,4.45
2019-04-11T03:38:55.225Z,4.58
2019-04-11T03:39:52.845Z,4.51
2019-04-11T03:40:50.123Z,4.55
2019-04-11T03:41:50.469Z,4.51
2019-04-11T03:42:44.840Z,4.50
2019-04-11T03:43:41.806Z,4.59
2019-04-11T03:44:38.335Z,4.45
2019-04-11T03:45:49.758Z,4.59
2019-04-11T03:46:48.136Z,4.58
2019-04-11T03:47:44.697Z,4.54
2019-04-11T03:48:45.354Z,4.48
2019-04-11T03:49:43.234Z,4.48
2019-04-11T03:50:32.828Z,4.54
2019-04-11T03:51:30.847Z,4.58
2019-04-11T03:52:32.618Z,4.59
2019-04-11T03:53:32.513Z,4.54
2019-04-11T03:54:31.842Z,4.48
2019-04-11T03:55:32.363Z,4.51
2019-04-11T03:56:30.741Z,4.48
2019-04-11T03:57:31.833Z,4.42
2019-04-11T03:58:31.138Z,4.54
2019-04-11T03:59:31.473Z,4.42
2019-04-11T04:00:35.998Z,4.52
2019-04-11T04:01:32.071Z,4.47
2019-04-11T04:02:30.875Z,4.37
2019-04-11T04:03:31.138Z,4.41
2019-04-11T04:04:30.689Z,4.40
2019-04-11T04:05:34.036Z,4.45
2019-04-11T04:06:33.071Z,4.37
2019-04-11T04:07:32.014Z,4.45
2019-04-11T04:08:31.464Z,4.42
2019-04-11T04:09:30.623Z,4.47
2019-04-11T04:10:31.772Z,4.40
2019-04-11T04:11:32.617Z,4.40
2019-04-11T04:12:31.426Z,4.45
2019-04-11T04:13:31.975Z,4.41
2019-04-11T04:14:30.554Z,4.41
2019-04-11T04:15:42.095Z,4.47
2019-04-11T04:16:39.842Z,4.41
2019-04-11T04:17:32.964Z,4.32
2019-04-11T04:18:31.770Z,4.41
2019-04-11T04:19:32.624Z,4.33
2019-04-11T04:20:30.608Z,4.34
2019-04-11T04:21:31.162Z,4.36
2019-04-11T04:22:31.561Z,4.23
2019-04-11T04:23:31.483Z,4.24
2019-04-11T04:24:34.861Z,4.26
2019-04-11T04:25:32.518Z,4.27
2019-04-11T04:26:31.312Z,4.29
2019-04-11T04:27:31.080Z,4.24
2019-04-11T04:28:31.757Z,4.22
2019-04-11T04:29:32.088Z,4.20
2019-04-11T04:30:30.420Z,4.23
2019-04-11T04:31:30.732Z,4.18
2019-04-11T04:32:31.976Z,4.26
2019-04-11T04:33:31.373Z,4.18
2019-04-11T04:34:31.634Z,4.26
2019-04-11T04:35:31.703Z,4.27
2019-04-11T04:36:30.974Z,4.26
2019-04-11T04:37:31.912Z,4.27
2019-04-11T04:38:31.600Z,4.23
2019-04-11T04:39:31.340Z,4.23
2019-04-11T04:40:46.311Z,4.23
2019-04-11T04:41:39.350Z,4.22
2019-04-11T04:42:36.593Z,4.22
2019-04-11T04:43:31.757Z,4.18
2019-04-11T04:44:31.606Z,4.14
2019-04-11T04:45:49.544Z,4.12
2019-04-11T04:46:50.218Z,4.20
2019-04-11T04:47:39.509Z,4.14
2019-04-11T04:48:32.360Z,4.18
2019-04-11T04:49:32.216Z,4.11
2019-04-11T04:50:30.926Z,4.05
2019-04-11T04:51:31.187Z,4.05
2019-04-11T04:52:31.909Z,4.04
2019-04-11T04:53:30.996Z,4.11
2019-04-11T04:54:30.813Z,3.98
2019-04-11T04:55:30.399Z,4.02
2019-04-11T04:56:32.200Z,4.11
2019-04-11T04:57:31.770Z,4.02
2019-04-11T04:58:31.714Z,4.06
2019-04-11T04:59:30.118Z,4.04
2019-04-11T05:00:32.019Z,3.96
2019-04-11T05:01:31.593Z,4.05
2019-04-11T05:02:30.953Z,4.06
2019-04-11T05:03:31.821Z,4.04
2019-04-11T05:04:31.683Z,4.00
2019-04-11T05:05:31.031Z,4.09
2019-04-11T05:06:30.003Z,4.08
2019-04-11T05:07:34.152Z,4.08
2019-04-11T05:08:32.402Z,4.04
2019-04-11T05:09:30.001Z,4.04
2019-04-11T05:10:30.642Z,4.08
2019-04-11T05:11:30.526Z,4.09
2019-04-11T05:12:30.259Z,4.08
2019-04-11T05:13:30.240Z,4.08
2019-04-11T05:14:31.466Z,4.09
2019-04-11T05:15:30.135Z,4.09
2019-04-11T05:16:30.018Z,4.14
2019-04-11T05:17:29.935Z,4.08
2019-04-11T05:18:29.948Z,4.16
2019-04-11T05:19:30.023Z,4.14
2019-04-11T05:20:30.190Z,4.20
2019-04-11T05:21:29.842Z,4.15
2019-04-11T05:22:30.986Z,4.23
2019-04-11T05:23:29.878Z,4.22
2019-04-11T05:24:30.498Z,4.27
2019-04-11T05:25:30.621Z,4.24
2019-04-11T05:26:29.769Z,4.30
2019-04-11T05:27:29.786Z,4.36
2019-04-11T05:28:29.861Z,4.24
2019-04-11T05:29:29.736Z,4.24
2019-04-11T05:30:29.731Z,4.26
2019-04-11T05:31:30.323Z,4.26
2019-04-11T05:32:29.735Z,4.30
2019-04-11T05:33:29.706Z,4.33
2019-04-11T05:34:29.765Z,4.34
2019-04-11T05:35:29.954Z,4.32
2019-04-11T05:36:30.424Z,4.32
2019-04-11T05:37:29.650Z,4.34
2019-04-11T05:38:29.653Z,4.42
2019-04-11T05:39:29.634Z,4.41
2019-04-11T05:40:31.060Z,4.41
2019-04-11T05:41:29.611Z,4.40
2019-04-11T05:42:29.623Z,4.44
2019-04-11T05:43:34.701Z,4.51
2019-04-11T05:44:30.619Z,4.51
2019-04-11T05:45:29.602Z,4.59
2019-04-11T05:46:35.488Z,4.54
2019-04-11T05:47:31.621Z,4.52
2019-04-11T05:48:30.516Z,4.55
2019-04-11T05:49:36.159Z,4.65
2019-04-11T05:50:30.510Z,4.72
2019-04-11T05:51:37.018Z,4.67
2019-04-11T05:52:32.229Z,4.65
2019-04-11T05:53:32.744Z,4.77
2019-04-11T05:54:29.467Z,4.88
2019-04-11T05:55:30.158Z,4.77
2019-04-11T05:56:29.930Z,4.89
2019-04-11T05:57:35.185Z,4.91
2019-04-11T05:58:30.439Z,4.91
2019-04-11T05:59:30.604Z,5.03
2019-04-11T06:00:30.462Z,4.97
2019-04-11T06:01:30.739Z,4.99
2019-04-11T06:02:29.400Z,5.10
2019-04-11T06:03:30.242Z,5.17
2019-04-11T06:04:30.239Z,5.21
2019-04-11T06:05:32.396Z,5.21
2019-04-11T06:06:34.304Z,5.27
2019-04-11T06:07:30.329Z,5.24
2019-04-11T06:08:30.757Z,5.27
2019-04-11T06:09:33.759Z,5.25
2019-04-11T06:10:30.381Z,5.30
2019-04-11T06:11:29.280Z,5.33
2019-04-11T06:12:29.617Z,5.39
2019-04-11T06:13:29.273Z,5.36
2019-04-11T06:14:29.281Z,5.43
2019-04-11T06:15:29.238Z,5.48
2019-04-11T06:16:37.036Z,5.51
2019-04-11T06:17:30.213Z,5.68
2019-04-11T06:18:33.176Z,5.65
2019-04-11T06:19:30.536Z,5.67
2019-04-11T06:20:29.266Z,5.65
2019-04-11T06:21:29.189Z,5.85
2019-04-11T06:22:29.743Z,5.79
2019-04-11T06:23:29.614Z,5.93
2019-04-11T06:24:29.133Z,5.86
2019-04-11T06:25:30.965Z,5.96
2019-04-11T06:26:30.325Z,6.08
2019-04-11T06:27:29.102Z,6.04
2019-04-11T06:28:29.118Z,6.18
2019-04-11T06:29:29.927Z,6.25
2019-04-11T06:30:29.096Z,6.27
2019-04-11T06:31:29.823Z,6.37
2019-04-11T06:32:29.922Z,6.37
2019-04-11T06:33:29.042Z,6.43
2019-04-11T06:34:29.028Z,6.54
2019-04-11T06:35:30.235Z,6.61
2019-04-11T06:36:30.041Z,6.66
2019-04-11T06:37:29.793Z,6.69
2019-04-11T06:38:30.069Z,6.76
2019-04-11T06:39:29.463Z,6.77
2019-04-11T06:40:29.255Z,6.88
2019-04-11T06:41:28.967Z,6.95
2019-04-11T06:42:30.200Z,7.05
2019-04-11T06:43:28.929Z,7.03
2019-04-11T06:44:29.979Z,7.05
2019-04-11T06:45:29.410Z,7.17
2019-04-11T06:46:29.218Z,7.24
2019-04-11T06:47:29.236Z,7.30
2019-04-11T06:48:29.696Z,7.37
2019-04-11T06:49:28.936Z,7.40
2019-04-11T06:50:28.851Z,7.49
2019-04-11T06:51:28.861Z,7.57
2019-04-11T06:52:28.827Z,7.53
2019-04-11T06:53:30.083Z,7.64
2019-04-11T06:54:28.806Z,7.74
2019-04-11T06:55:29.020Z,7.83
2019-04-11T06:56:29.338Z,7.80
2019-04-11T06:57:29.906Z,7.87
2019-04-11T06:58:29.735Z,7.89
2019-04-11T06:59:28.758Z,7.90
2019-04-11T07:00:29.311Z,8.05
2019-04-11T07:01:29.955Z,8.12
2019-04-11T07:02:29.896Z,8.07
2019-04-11T07:03:30.477Z,8.11
2019-04-11T07:04:29.478Z,8.07
2019-04-11T07:05:28.992Z,8.11
2019-04-11T07:06:29.369Z,8.16
2019-04-11T07:07:30.313Z,8.20
2019-04-11T07:08:28.653Z,8.23
2019-04-11T07:09:28.797Z,8.20
2019-04-11T07:10:28.734Z,8.33
2019-04-11T07:11:28.661Z,8.34
2019-04-11T07:12:28.723Z,8.38
2019-04-11T07:13:28.600Z,8.44
2019-04-11T07:14:29.137Z,8.50
2019-04-11T07:15:29.383Z,8.48
2019-04-11T07:16:29.446Z,8.55
2019-04-11T07:17:29.671Z,8.55
2019-04-11T07:18:29.105Z,8.66
2019-04-11T07:19:28.735Z,8.74
2019-04-11T07:20:29.334Z,8.79
2019-04-11T07:21:28.521Z,8.80
2019-04-11T07:22:28.521Z,8.81
2019-04-11T07:23:28.601Z,9.01
2019-04-11T07:24:28.488Z,8.99
2019-04-11T07:25:28.959Z,9.04
2019-04-11T07:26:29.445Z,9.08
2019-04-11T07:27:28.440Z,9.15
2019-04-11T07:28:29.501Z,9.29
2019-04-11T07:29:29.253Z,9.31
2019-04-11T07:30:28.929Z,9.28
2019-04-11T07:31:29.868Z,9.31
2019-04-11T07:32:29.755Z,9.42
2019-04-11T07:33:28.882Z,9.46
2019-04-11T07:34:32.733Z,9.46
2019-04-11T07:35:29.417Z,9.42
2019-04-11T07:36:29.578Z,9.39
2019-04-11T07:37:28.369Z,9.57
2019-04-11T07:38:29.407Z,9.43
2019-04-11T07:39:28.928Z,9.56
2019-04-11T07:40:29.457Z,9.65
2019-04-11T07:41:29.679Z,9.65
2019-04-11T07:42:28.294Z,9.61
2019-04-11T07:43:29.217Z,9.76
2019-04-11T07:44:30.119Z,9.74
2019-04-11T07:45:28.255Z,9.75
2019-04-11T07:46:28.950Z,9.76
2019-04-11T07:47:29.425Z,9.83
2019-04-11T07:48:29.227Z,9.83
2019-04-11T07:49:28.599Z,9.76
2019-04-11T07:50:28.204Z,9.84
2019-04-11T07:51:28.225Z,9.94
2019-04-11T07:52:30.527Z,9.91
2019-04-11T07:53:28.553Z,9.93
2019-04-11T07:54:28.225Z,9.94
2019-04-11T07:55:28.153Z,9.97
2019-04-11T07:56:28.127Z,9.94
2019-04-11T07:57:28.432Z,9.91
2019-04-11T07:58:28.615Z,10.01
2019-04-11T07:59:28.095Z,10.09
2019-04-11T08:00:39.914Z,10.15
2019-04-11T08:01:29.425Z,10.18
2019-04-11T08:02:28.989Z,10.22
2019-04-11T08:03:28.075Z,10.22
2019-04-11T08:04:28.048Z,10.30
2019-04-11T08:05:28.093Z,10.23
2019-04-11T08:06:28.825Z,10.30
2019-04-11T08:07:28.233Z,10.33
2019-04-11T08:08:27.999Z,10.36
2019-04-11T08:09:28.977Z,10.34
2019-04-11T08:10:27.968Z,10.40
2019-04-11T08:11:27.957Z,10.34
2019-04-11T08:12:27.943Z,10.38
2019-04-11T08:13:28.348Z,10.42
2019-04-11T08:14:28.688Z,10.55
2019-04-11T08:15:27.918Z,10.48
2019-04-11T08:16:28.933Z,10.63
2019-04-11T08:17:35.547Z,10.66
2019-04-11T08:18:28.878Z,10.64
2019-04-11T08:19:28.821Z,10.79
2019-04-11T08:20:29.022Z,10.78
2019-04-11T08:21:28.296Z,10.81
2019-04-11T08:22:27.840Z,10.92
2019-04-11T08:23:27.833Z,10.91
2019-04-11T08:24:28.895Z,11.02
2019-04-11T08:25:27.816Z,11.02
2019-04-11T08:26:28.301Z,11.09
2019-04-11T08:27:27.789Z,11.06
2019-04-11T08:28:28.868Z,11.15
2019-04-11T08:29:28.628Z,11.17
2019-04-11T08:30:27.781Z,11.27
2019-04-11T08:31:28.777Z,11.25
2019-04-11T08:32:27.731Z,11.28
2019-04-11T08:33:28.783Z,11.32
2019-04-11T08:34:27.714Z,11.37
2019-04-11T08:35:28.373Z,11.51
2019-04-11T08:36:27.685Z,11.54
2019-04-11T08:37:27.697Z,11.65
2019-04-11T08:38:28.682Z,11.58
2019-04-11T08:39:27.656Z,11.60
2019-04-11T08:40:28.105Z,11.69
2019-04-11T08:41:27.628Z,11.65
2019-04-11T08:42:27.626Z,11.67
2019-04-11T08:43:28.796Z,11.72
2019-04-11T08:44:28.044Z,11.73
2019-04-11T08:45:27.599Z,11.73
2019-04-11T08:46:28.873Z,11.75
2019-04-11T08:47:40.204Z,11.82
2019-04-11T08:48:28.847Z,11.80
2019-04-11T08:49:30.158Z,11.85
2019-04-11T08:50:28.275Z,11.95
2019-04-11T08:51:27.590Z,12.01
2019-04-11T08:52:27.918Z,12.05
2019-04-11T08:53:27.497Z,12.17
2019-04-11T08:54:27.486Z,12.12
2019-04-11T08:55:27.474Z,12.27
2019-04-11T08:56:28.449Z,12.21
2019-04-11T08:57:27.576Z,12.39
2019-04-11T08:58:27.439Z,12.41
2019-04-11T08:59:27.434Z,12.37
2019-04-11T09:00:28.249Z,12.46
2019-04-11T09:01:27.725Z,12.49
2019-04-11T09:02:27.394Z,12.56
2019-04-11T09:03:27.378Z,12.53
2019-04-11T09:04:27.422Z,12.71
2019-04-11T09:05:27.389Z,12.56
2019-04-11T09:06:28.412Z,12.54
2019-04-11T09:07:27.626Z,12.64
2019-04-11T09:08:27.324Z,12.56
2019-04-11T09:09:27.472Z,12.45
2019-04-11T09:10:28.239Z,12.45
2019-04-11T09:11:27.297Z,12.49
2019-04-11T09:12:27.294Z,12.54
2019-04-11T09:13:27.296Z,12.53
2019-04-11T09:14:28.404Z,12.52
2019-04-11T09:15:27.247Z,12.60
2019-04-11T09:16:27.755Z,12.54
2019-04-11T09:17:28.220Z,12.56
2019-04-11T09:18:28.111Z,12.57
2019-04-11T09:19:27.343Z,12.54
2019-04-11T09:20:27.638Z,12.68
2019-04-11T09:21:27.179Z,12.71
2019-04-11T09:22:27.183Z,12.72
2019-04-11T09:23:27.925Z,12.78
2019-04-11T09:24:27.356Z,12.71
2019-04-11T09:25:27.433Z,12.72
2019-04-11T09:26:27.723Z,12.71
2019-04-11T09:27:27.137Z,12.64
2019-04-11T09:28:27.193Z,12.56
2019-04-11T09:29:28.273Z,12.59
2019-04-11T09:30:27.079Z,12.53
2019-04-11T09:31:27.563Z,12.65
2019-04-11T09:32:27.061Z,12.70
2019-04-11T09:33:27.059Z,12.71
2019-04-11T09:34:28.029Z,12.74
2019-04-11T09:35:27.042Z,12.78
2019-04-11T09:36:28.971Z,12.75
2019-04-11T09:37:27.449Z,12.83
2019-04-11T09:38:27.024Z,12.79
2019-04-11T09:39:27.040Z,12.85
2019-04-11T09:40:28.051Z,12.86
2019-04-11T09:41:28.152Z,12.92
2019-04-11T09:42:28.292Z,12.89
2019-04-11T09:43:28.102Z,12.92
2019-04-11T09:44:26.940Z,13.01
2019-04-11T09:45:27.745Z,13.14
2019-04-11T09:46:27.221Z,13.17
2019-04-11T09:47:26.893Z,13.08
2019-04-11T09:48:26.901Z,13.04
2019-04-11T09:49:27.127Z,13.04
2019-04-11T09:50:26.860Z,12.97
2019-04-11T09:51:29.211Z,13.12
2019-04-11T09:52:27.000Z,13.26
2019-04-11T09:53:28.184Z,13.20
2019-04-11T09:54:28.159Z,13.26
2019-04-11T09:55:26.804Z,13.23
2019-04-11T09:56:27.106Z,13.39
2019-04-11T09:57:26.896Z,13.44
2019-04-11T09:58:27.500Z,13.45
2019-04-11T09:59:27.159Z,13.46
2019-04-11T10:00:26.993Z,13.51
2019-04-11T10:01:26.814Z,13.44
2019-04-11T10:02:27.507Z,13.39
2019-04-11T10:03:27.839Z,13.39
2019-04-11T10:04:27.632Z,13.38
2019-04-11T10:05:26.688Z,13.46
2019-04-11T10:06:26.681Z,13.54
2019-04-11T10:07:27.931Z,13.41
2019-04-11T10:08:26.701Z,13.52
2019-04-11T10:09:26.663Z,13.44
2019-04-11T10:10:26.805Z,13.41
2019-04-11T10:11:26.638Z,13.51
2019-04-11T10:12:27.652Z,13.59
2019-04-11T10:13:26.953Z,13.67
2019-04-11T10:14:26.616Z,13.55
2019-04-11T10:15:27.198Z,13.54
2019-04-11T10:16:26.590Z,13.49
2019-04-11T10:17:26.984Z,13.39
2019-04-11T10:18:30.981Z,13.51
2019-04-11T10:19:27.784Z,13.42
2019-04-11T10:20:26.847Z,13.42
2019-04-11T10:21:26.517Z,13.39
2019-04-11T10:22:27.073Z,13.42
2019-04-11T10:23:27.055Z,13.32
2019-04-11T10:24:26.507Z,13.39
2019-04-11T10:25:28.279Z,13.42
2019-04-11T10:26:27.714Z,13.38
2019-04-11T10:27:26.744Z,13.57
2019-04-11T10:28:27.289Z,13.64
2019-04-11T10:29:28.990Z,13.55
2019-04-11T10:30:26.436Z,13.67
2019-04-11T10:31:26.410Z,13.60
2019-04-11T10:32:27.444Z,13.73
2019-04-11T10:33:26.391Z,13.81
2019-04-11T10:34:26.417Z,13.85
2019-04-11T10:35:26.382Z,13.89
2019-04-11T10:36:27.378Z,13.95
2019-04-11T10:37:27.524Z,13.88
2019-04-11T10:38:26.594Z,14.03
2019-04-11T10:39:27.138Z,13.87
2019-04-11T10:40:26.330Z,13.95
2019-04-11T10:41:26.311Z,13.99
2019-04-11T10:42:26.661Z,13.92
2019-04-11T10:43:26.679Z,14.00
2019-04-11T10:44:26.293Z,14.00
2019-04-11T10:45:26.832Z,13.89
2019-04-11T10:46:27.119Z,13.85
2019-04-11T10:47:27.045Z,13.85
2019-04-11T10:48:34.530Z,13.82
2019-04-11T10:49:28.350Z,13.75
2019-04-11T10:50:26.239Z,13.84
2019-04-11T10:51:26.451Z,13.85
2019-04-11T10:52:26.664Z,13.88
2019-04-11T10:53:26.972Z,13.92
2019-04-11T10:54:26.161Z,14.04
2019-04-11T10:55:27.330Z,14.04
2019-04-11T10:56:26.476Z,14.07
2019-04-11T10:57:26.118Z,14.03
2019-04-11T10:58:26.848Z,14.21
2019-04-11T10:59:27.810Z,14.35
2019-04-11T11:00:27.197Z,14.39
2019-04-11T11:01:26.708Z,14.32
2019-04-11T11:02:26.136Z,14.33
2019-04-11T11:03:27.308Z,14.22
2019-04-11T11:04:26.043Z,14.20
2019-04-11T11:05:26.279Z,14.27
2019-04-11T11:06:26.045Z,14.25
2019-04-11T11:07:26.729Z,14.25
2019-04-11T11:08:26.031Z,14.32
2019-04-11T11:09:26.275Z,14.25
2019-04-11T11:10:25.978Z,14.29
2019-04-11T11:11:26.168Z,14.24
2019-04-11T11:12:25.970Z,14.24
2019-04-11T11:13:25.957Z,14.36
2019-04-11T11:14:26.971Z,14.39
2019-04-11T11:15:25.953Z,14.39
2019-04-11T11:16:27.933Z,14.36
2019-04-11T11:17:50.192Z,14.43
2019-04-11T11:18:48.103Z,14.42
2019-04-11T11:19:43.933Z,14.45
2019-04-11T11:20:33.642Z,14.39
2019-04-11T11:21:30.608Z,14.40
2019-04-11T11:22:27.389Z,14.46
2019-04-11T11:23:26.882Z,14.43
2019-04-11T11:24:26.079Z,14.55
2019-04-11T11:25:26.733Z,14.50
2019-04-11T11:26:26.538Z,14.60
2019-04-11T11:27:26.559Z,14.50
2019-04-11T11:28:25.967Z,14.60
2019-04-11T11:29:26.655Z,14.58
2019-04-11T11:30:25.782Z,14.61
2019-04-11T11:31:25.768Z,14.55
2019-04-11T11:32:25.752Z,14.60
2019-04-11T11:33:26.594Z,14.62
2019-04-11T11:34:25.744Z,14.60
2019-04-11T11:35:29.558Z,14.60
2019-04-11T11:36:26.688Z,14.62
2019-04-11T11:37:25.875Z,14.62
2019-04-11T11:38:26.053Z,14.64
2019-04-11T11:39:26.812Z,14.62
2019-04-11T11:40:25.958Z,14.65
2019-04-11T11:41:25.657Z,14.68
2019-04-11T11:42:26.158Z,14.62
2019-04-11T11:43:25.639Z,14.65
2019-04-11T11:44:25.642Z,14.68
2019-04-11T11:45:25.694Z,14.57
2019-04-11T11:46:28.100Z,14.52
2019-04-11T11:47:25.907Z,14.24
2019-04-11T11:48:26.375Z,14.25
2019-04-11T11:49:41.545Z,14.40
2019-04-11T11:50:26.832Z,14.42
2019-04-11T11:51:29.215Z,14.50
2019-04-11T11:52:25.521Z,14.55
2019-04-11T11:53:27.320Z,14.62
2019-04-11T11:54:25.501Z,14.80
2019-04-11T11:55:25.478Z,14.80
2019-04-11T11:56:26.258Z,14.73
2019-04-11T11:57:26.590Z,14.84
2019-04-11T11:58:25.768Z,14.81
2019-04-11T11:59:25.448Z,14.88
2019-04-11T12:00:25.437Z,14.96
2019-04-11T12:01:25.448Z,15.03
2019-04-11T12:02:26.374Z,15.13
2019-04-11T12:03:29.154Z,15.17
2019-04-11T12:04:26.177Z,15.09
2019-04-11T12:05:26.801Z,15.17
2019-04-11T12:06:25.369Z,15.16
2019-04-11T12:07:25.348Z,15.10
2019-04-11T12:08:25.357Z,14.99
2019-04-11T12:09:26.572Z,15.09
2019-04-11T12:10:26.114Z,14.96
2019-04-11T12:11:26.283Z,14.99
2019-04-11T12:12:25.294Z,14.83
2019-04-11T12:13:26.240Z,14.86
2019-04-11T12:14:25.280Z,14.84
2019-04-11T12:15:26.857Z,14.83
2019-04-11T12:16:25.908Z,14.94
2019-04-11T12:17:25.329Z,14.99
2019-04-11T12:18:26.663Z,14.94
2019-04-11T12:19:25.223Z,14.88
2019-04-11T12:20:25.215Z,14.83
2019-04-11T12:21:28.040Z,14.83
2019-04-11T12:22:25.313Z,14.77
2019-04-11T12:23:25.977Z,14.65
2019-04-11T12:24:25.330Z,14.61
2019-04-11T12:25:25.215Z,14.55
2019-04-11T12:26:27.939Z,14.50
2019-04-11T12:27:26.797Z,14.52
2019-04-11T12:28:25.667Z,14.57
2019-04-11T12:29:25.142Z,14.50
2019-04-11T12:30:30.538Z,14.55
2019-04-11T12:31:26.081Z,14.55
2019-04-11T12:32:25.294Z,14.55
2019-04-11T12:33:25.671Z,14.50
2019-04-11T12:34:26.094Z,14.55
2019-04-11T12:35:26.281Z,14.51
2019-04-11T12:36:26.371Z,14.60
2019-04-11T12:37:25.316Z,14.61
2019-04-11T12:38:25.244Z,14.84
2019-04-11T12:39:25.443Z,14.72
2019-04-11T12:40:24.983Z,14.78
2019-04-11T12:41:24.974Z,14.86
2019-04-11T12:42:24.976Z,14.78
2019-04-11T12:43:24.949Z,14.69
2019-04-11T12:44:26.746Z,14.69
2019-04-11T12:45:24.929Z,14.80
2019-04-11T12:46:29.805Z,14.86
2019-04-11T12:47:25.915Z,14.83
2019-04-11T12:48:24.931Z,14.83
2019-04-11T12:49:24.900Z,14.80
2019-04-11T12:50:25.008Z,14.96
2019-04-11T12:51:24.865Z,14.83
2019-04-11T12:52:24.860Z,14.84
2019-04-11T12:53:24.846Z,14.86
2019-04-11T12:54:24.905Z,14.98
2019-04-11T12:55:24.852Z,14.91
2019-04-11T12:56:24.835Z,15.09
2019-04-11T12:57:24.800Z,15.10
2019-04-11T12:58:24.797Z,15.09
2019-04-11T12:59:24.780Z,15.06
2019-04-11T13:00:24.831Z,15.02
2019-04-11T13:01:24.769Z,15.06
2019-04-11T13:02:24.745Z,14.99
2019-04-11T13:03:24.742Z,15.02
2019-04-11T13:04:24.760Z,14.91
2019-04-11T13:05:24.757Z,14.96
2019-04-11T13:06:34.930Z,15.06
2019-04-11T13:07:25.691Z,15.02
2019-04-11T13:08:24.688Z,15.14
2019-04-11T13:09:24.681Z,15.09
2019-04-11T13:10:24.667Z,15.11